Time,TemperatureF,DewpointF,PressureIn,WindDirection,WindDirectionDegrees,WindSpeedMPH,WindSpeedGustMPH,Humidity,HourlyPrecipIn,Conditions,Clouds,dailyrainin,SoftwareType,DateUTC
2013-01-21 00:04:00,33.1,14.9,30.07,West,270,10.0,14.0,47,0.00,,,0.00,WUHU216TE923,2013-01-21 08:04:00,
2013-01-21 00:09:00,33.1,14.9,30.07,SW,225,10.0,11.7,47,0.00,,,0.00,WUHU216TE923,2013-01-21 08:09:00,
2013-01-21 00:14:00,33.1,14.9,30.07,SW,225,10.0,11.7,47,0.00,,,0.00,WUHU216TE923,2013-01-21 08:14:00,
2013-01-21 00:19:00,32.9,14.8,30.07,West,270,9.3,11.7,47,0.00,,,0.00,WUHU216TE923,2013-01-21 08:19:00,
2013-01-21 00:24:00,32.9,14.8,30.08,WSW,248,8.9,13.8,47,0.00,,,0.00,WUHU216TE923,2013-01-21 08:24:00,
2013-01-21 00:29:00,32.9,14.8,30.08,SSW,203,9.1,13.8,47,0.00,,,0.00,WUHU216TE923,2013-01-21 08:29:00,
2013-01-21 00:34:00,32.9,14.8,30.08,SSW,203,10.1,12.7,47,0.00,,,0.00,WUHU216TE923,2013-01-21 08:34:00,
2013-01-21 00:39:00,32.9,14.8,30.08,SW,225,9.9,16.8,47,0.00,,,0.00,WUHU216TE923,2013-01-21 08:39:00,
2013-01-21 00:44:00,33.1,14.9,30.07,SW,225,9.8,16.8,47,0.00,,,0.00,WUHU216TE923,2013-01-21 08:44:00,
2013-01-21 00:49:00,32.9,14.8,30.07,SSW,203,9.9,14.4,47,0.00,,,0.00,WUHU216TE923,2013-01-21 08:49:00,
2013-01-21 00:54:00,32.7,14.6,30.07,SSW,203,8.5,11.4,47,0.00,,,0.00,WUHU216TE923,2013-01-21 08:54:00,
2013-01-21 00:59:00,32.7,14.6,30.07,SW,225,7.9,9.6,47,0.00,,,0.00,WUHU216TE923,2013-01-21 08:59:00,
2013-01-21 01:04:00,32.7,14.6,30.07,SSW,203,7.2,9.6,47,0.00,,,0.00,WUHU216TE923,2013-01-21 09:04:00,
2013-01-21 01:09:00,32.7,14.6,30.07,SW,225,6.5,7.3,47,0.00,,,0.00,WUHU216TE923,2013-01-21 09:09:00,
2013-01-21 01:14:00,32.5,14.4,30.07,SW,225,6.5,8.2,47,0.00,,,0.00,WUHU216TE923,2013-01-21 09:14:00,
2013-01-21 01:19:00,32.7,14.6,30.07,South,180,6.4,8.2,47,0.00,,,0.00,WUHU216TE923,2013-01-21 09:19:00,
2013-01-21 01:24:00,32.7,14.6,30.07,WSW,248,6.7,6.7,47,0.00,,,0.00,WUHU216TE923,2013-01-21 09:24:00,
2013-01-21 01:29:00,32.7,14.6,30.07,SW,225,6.8,9.0,47,0.00,,,0.00,WUHU216TE923,2013-01-21 09:29:00,
2013-01-21 01:34:00,32.7,14.6,30.07,South,180,7.1,9.0,47,0.00,,,0.00,WUHU216TE923,2013-01-21 09:34:00,
2013-01-21 01:39:00,32.5,14.4,30.07,SE,135,7.5,9.0,47,0.00,,,0.00,WUHU216TE923,2013-01-21 09:39:00,
2013-01-21 01:44:00,32.5,14.4,30.07,South,180,7.3,9.0,47,0.00,,,0.00,WUHU216TE923,2013-01-21 09:44:00,
2013-01-21 01:49:00,32.4,14.3,30.07,SSE,158,7.0,9.0,47,0.00,,,0.00,WUHU216TE923,2013-01-21 09:49:00,
2013-01-21 01:54:00,32.2,14.1,30.07,SW,225,6.9,9.0,47,0.00,,,0.00,WUHU216TE923,2013-01-21 09:54:00,
2013-01-21 01:59:00,32.0,13.9,30.07,South,180,7.1,8.6,47,0.00,,,0.00,WUHU216TE923,2013-01-21 09:59:00,
2013-01-21 02:04:00,31.6,13.6,30.07,South,180,7.1,8.6,47,0.00,,,0.00,WUHU216TE923,2013-01-21 10:04:00,
2013-01-21 02:09:00,31.3,13.8,30.07,South,180,7.1,13.3,48,0.00,,,0.00,WUHU216TE923,2013-01-21 10:09:00,
2013-01-21 02:14:00,30.9,13.4,30.07,South,180,6.4,13.3,48,0.00,,,0.00,WUHU216TE923,2013-01-21 10:14:00,
2013-01-21 02:19:00,30.9,13.4,30.07,SW,225,6.6,11.8,48,0.00,,,0.00,WUHU216TE923,2013-01-21 10:19:00,
2013-01-21 02:24:00,30.4,12.9,30.06,South,180,6.9,11.8,48,0.00,,,0.00,WUHU216TE923,2013-01-21 10:24:00,
2013-01-21 02:29:00,30.4,12.9,30.06,SW,225,7.0,8.0,48,0.00,,,0.00,WUHU216TE923,2013-01-21 10:29:00,
2013-01-21 02:34:00,30.2,12.8,30.06,SSW,203,6.7,7.4,48,0.00,,,0.00,WUHU216TE923,2013-01-21 10:34:00,
2013-01-21 02:39:00,30.2,12.8,30.06,SW,225,6.6,6.8,48,0.00,,,0.00,WUHU216TE923,2013-01-21 10:39:00,
2013-01-21 02:44:00,30.0,12.6,30.06,SW,225,6.2,11.9,48,0.00,,,0.00,WUHU216TE923,2013-01-21 10:44:00,
2013-01-21 02:49:00,29.8,12.9,30.06,South,180,6.6,11.9,49,0.00,,,0.00,WUHU216TE923,2013-01-21 10:49:00,
2013-01-21 02:54:00,29.7,12.8,30.06,SW,225,6.8,12.7,49,0.00,,,0.00,WUHU216TE923,2013-01-21 10:54:00,
2013-01-21 02:59:00,29.7,12.8,30.06,SW,225,6.8,12.7,49,0.00,,,0.00,WUHU216TE923,2013-01-21 10:59:00,
2013-01-21 03:04:00,29.7,12.3,30.06,SW,225,6.9,10.3,48,0.00,,,0.00,WUHU216TE923,2013-01-21 11:04:00,
2013-01-21 03:09:00,29.7,12.3,30.06,SW,225,7.1,13.4,48,0.00,,,0.00,WUHU216TE923,2013-01-21 11:09:00,
2013-01-21 03:14:00,29.7,12.3,30.06,SW,225,7.1,13.4,48,0.00,,,0.00,WUHU216TE923,2013-01-21 11:14:00,
2013-01-21 03:19:00,29.7,12.3,30.06,SSW,203,7.0,13.4,48,0.00,,,0.00,WUHU216TE923,2013-01-21 11:19:00,
2013-01-21 03:24:00,29.8,12.4,30.05,SSW,203,6.1,7.0,48,0.00,,,0.00,WUHU216TE923,2013-01-21 11:24:00,
2013-01-21 03:29:00,30.0,12.6,30.05,SSE,158,5.8,6.7,48,0.00,,,0.00,WUHU216TE923,2013-01-21 11:29:00,
2013-01-21 03:34:00,30.4,12.5,30.05,SW,225,6.2,10.5,47,0.00,,,0.00,WUHU216TE923,2013-01-21 11:34:00,
2013-01-21 03:39:00,30.6,12.6,30.05,SW,225,6.8,10.5,47,0.00,,,0.00,WUHU216TE923,2013-01-21 11:39:00,
2013-01-21 03:44:00,30.6,12.1,30.04,SSW,203,6.5,8.2,46,0.00,,,0.00,WUHU216TE923,2013-01-21 11:44:00,
2013-01-21 03:49:00,30.6,12.1,30.04,WSW,248,5.7,6.5,46,0.00,,,0.00,WUHU216TE923,2013-01-21 11:49:00,
2013-01-21 03:54:00,30.2,11.8,30.04,SSW,203,6.1,6.7,46,0.00,,,0.00,WUHU216TE923,2013-01-21 11:54:00,
2013-01-21 03:59:00,29.7,11.3,30.04,SW,225,7.3,14.1,46,0.00,,,0.00,WUHU216TE923,2013-01-21 11:59:00,
2013-01-21 04:04:00,29.3,10.9,30.04,SSW,203,7.2,14.1,46,0.00,,,0.00,WUHU216TE923,2013-01-21 12:04:00,
2013-01-21 04:09:00,29.1,10.8,30.04,South,180,6.3,8.1,46,0.00,,,0.00,WUHU216TE923,2013-01-21 12:09:00,
2013-01-21 04:14:00,29.3,11.4,30.04,South,180,6.4,8.3,47,0.00,,,0.00,WUHU216TE923,2013-01-21 12:14:00,
2013-01-21 04:19:00,29.3,11.4,30.04,SW,225,6.7,8.9,47,0.00,,,0.00,WUHU216TE923,2013-01-21 12:19:00,
2013-01-21 04:24:00,29.3,11.4,30.05,WSW,248,6.5,8.9,47,0.00,,,0.00,WUHU216TE923,2013-01-21 12:24:00,
2013-01-21 04:29:00,29.1,11.3,30.05,SSW,203,6.5,8.4,47,0.00,,,0.00,WUHU216TE923,2013-01-21 12:29:00,
2013-01-21 04:34:00,29.5,11.1,30.05,South,180,6.0,10.5,46,0.00,,,0.00,WUHU216TE923,2013-01-21 12:34:00,
2013-01-21 04:39:00,29.7,11.3,30.05,SW,225,5.0,10.5,46,0.00,,,0.00,WUHU216TE923,2013-01-21 12:39:00,
2013-01-21 04:44:00,30.0,11.6,30.04,WSW,248,4.2,5.8,46,0.00,,,0.00,WUHU216TE923,2013-01-21 12:44:00,
2013-01-21 04:49:00,29.8,11.4,30.04,SSW,203,4.2,4.3,46,0.00,,,0.00,WUHU216TE923,2013-01-21 12:49:00,
2013-01-21 04:54:00,29.7,11.3,30.04,SSE,158,4.5,5.9,46,0.00,,,0.00,WUHU216TE923,2013-01-21 12:54:00,
2013-01-21 04:59:00,29.7,11.3,30.04,SSW,203,5.4,12.0,46,0.00,,,0.00,WUHU216TE923,2013-01-21 12:59:00,
2013-01-21 05:04:00,29.8,11.4,30.04,SSE,158,6.2,12.0,46,0.00,,,0.00,WUHU216TE923,2013-01-21 13:04:00,
2013-01-21 05:09:00,30.2,11.3,30.04,SW,225,6.9,8.8,45,0.00,,,0.00,WUHU216TE923,2013-01-21 13:09:00,
2013-01-21 05:14:00,30.2,11.3,30.04,SSW,203,5.1,8.8,45,0.00,,,0.00,WUHU216TE923,2013-01-21 13:14:00,
2013-01-21 05:19:00,30.4,11.4,30.04,South,180,3.5,5.1,45,0.00,,,0.00,WUHU216TE923,2013-01-21 13:19:00,
2013-01-21 05:24:00,29.8,10.9,30.04,SW,225,2.5,3.5,45,0.00,,,0.00,WUHU216TE923,2013-01-21 13:24:00,
2013-01-21 05:29:00,29.5,10.6,30.04,SW,225,2.6,7.1,45,0.00,,,0.00,WUHU216TE923,2013-01-21 13:29:00,
2013-01-21 05:34:00,29.3,10.4,30.04,SW,225,3.1,7.1,45,0.00,,,0.00,WUHU216TE923,2013-01-21 13:34:00,
2013-01-21 05:39:00,29.1,10.3,30.04,SW,225,3.9,6.2,45,0.00,,,0.00,WUHU216TE923,2013-01-21 13:39:00,
2013-01-21 05:45:00,28.6,10.3,30.04,SSE,158,4.3,6.2,46,0.00,,,0.00,WUHU216TE923,2013-01-21 13:45:00,
2013-01-21 05:50:00,28.2,9.9,30.04,South,180,5.4,9.5,46,0.00,,,0.00,WUHU216TE923,2013-01-21 13:50:00,
2013-01-21 05:55:00,28.0,9.8,30.04,South,180,6.5,9.5,46,0.00,,,0.00,WUHU216TE923,2013-01-21 13:55:00,
2013-01-21 06:00:00,27.9,9.7,30.04,SW,225,6.9,9.0,46,0.00,,,0.00,WUHU216TE923,2013-01-21 14:00:00,
2013-01-21 06:05:00,27.5,9.8,30.04,SSW,203,8.4,11.8,47,0.00,,,0.00,WUHU216TE923,2013-01-21 14:05:00,
2013-01-21 06:10:00,27.5,9.8,30.04,SSW,203,8.7,13.8,47,0.00,,,0.00,WUHU216TE923,2013-01-21 14:10:00,
2013-01-21 06:15:00,27.5,9.8,30.04,SSW,203,8.7,13.8,47,0.00,,,0.00,WUHU216TE923,2013-01-21 14:15:00,
2013-01-21 06:20:00,26.6,9.4,30.04,SSW,203,10.9,13.8,48,0.00,,,0.00,WUHU216TE923,2013-01-21 14:20:00,
2013-01-21 06:25:00,26.6,9.9,30.03,SW,225,9.3,10.9,49,0.00,,,0.00,WUHU216TE923,2013-01-21 14:25:00,
2013-01-21 06:30:00,26.4,9.7,30.03,WSW,248,8.7,15.5,49,0.00,,,0.00,WUHU216TE923,2013-01-21 14:30:00,
2013-01-21 06:35:00,26.4,9.7,30.03,WSW,248,9.0,15.5,49,0.00,,,0.00,WUHU216TE923,2013-01-21 14:35:00,
2013-01-21 06:40:00,26.6,9.9,30.03,SSW,203,9.6,16.8,49,0.00,,,0.00,WUHU216TE923,2013-01-21 14:40:00,
2013-01-21 06:45:00,26.1,9.5,30.03,SW,225,9.9,16.8,49,0.00,,,0.00,WUHU216TE923,2013-01-21 14:45:00,
2013-01-21 06:50:00,25.9,9.3,30.03,South,180,10.1,15.8,49,0.00,,,0.00,WUHU216TE923,2013-01-21 14:50:00,
2013-01-21 06:55:00,25.7,9.5,30.03,WSW,248,10.0,15.8,50,0.00,,,0.00,WUHU216TE923,2013-01-21 14:55:00,
2013-01-21 07:00:00,25.9,9.7,30.03,SSE,158,10.3,10.3,50,0.00,,,0.00,WUHU216TE923,2013-01-21 15:00:00,
2013-01-21 07:05:00,25.9,9.7,30.03,SW,225,10.2,17.1,50,0.00,,,0.00,WUHU216TE923,2013-01-21 15:05:00,
2013-01-21 07:10:00,25.9,9.7,30.03,SW,225,10.2,17.1,50,0.00,,,0.00,WUHU216TE923,2013-01-21 15:10:00,
2013-01-21 07:15:00,25.7,10.0,30.03,SW,225,10.3,15.0,51,0.00,,,0.00,WUHU216TE923,2013-01-21 15:15:00,
2013-01-21 07:20:00,25.7,9.5,30.03,WSW,248,9.7,15.0,50,0.00,,,0.00,WUHU216TE923,2013-01-21 15:20:00,
2013-01-21 07:25:00,25.5,9.4,30.04,SSW,203,8.8,16.8,50,0.00,,,0.00,WUHU216TE923,2013-01-21 15:25:00,
2013-01-21 07:30:00,25.5,9.4,30.04,SSW,203,8.1,16.8,50,0.00,,,0.00,WUHU216TE923,2013-01-21 15:30:00,
2013-01-21 07:35:00,25.7,9.5,30.04,WSW,248,7.6,11.3,50,0.00,,,0.00,WUHU216TE923,2013-01-21 15:35:00,
2013-01-21 07:40:00,25.7,9.5,30.04,WSW,248,8.0,12.4,50,0.00,,,0.00,WUHU216TE923,2013-01-21 15:40:00,
2013-01-21 07:45:00,25.7,9.5,30.04,WSW,248,9.2,12.9,50,0.00,,,0.00,WUHU216TE923,2013-01-21 15:45:00,
2013-01-21 07:50:00,25.5,9.4,30.04,WSW,248,8.4,12.9,50,0.00,,,0.00,WUHU216TE923,2013-01-21 15:50:00,
2013-01-21 07:55:00,25.3,9.2,30.04,South,180,8.9,22.6,50,0.00,,,0.00,WUHU216TE923,2013-01-21 15:55:00,
2013-01-21 08:00:00,25.3,9.2,30.04,WSW,248,9.5,22.6,50,0.00,,,0.00,WUHU216TE923,2013-01-21 16:00:00,
2013-01-21 08:05:00,25.3,9.6,30.04,SSW,203,11.5,15.3,51,0.00,,,0.00,WUHU216TE923,2013-01-21 16:05:00,
2013-01-21 08:10:00,25.3,9.6,30.04,SW,225,12.1,15.3,51,0.00,,,0.00,WUHU216TE923,2013-01-21 16:10:00,
2013-01-21 08:15:00,25.3,9.6,30.04,SW,225,12.5,16.4,51,0.00,,,0.00,WUHU216TE923,2013-01-21 16:15:00,
2013-01-21 08:20:00,25.3,9.6,30.04,WSW,248,12.1,16.4,51,0.00,,,0.00,WUHU216TE923,2013-01-21 16:20:00,
2013-01-21 08:25:00,25.7,10.0,30.03,SW,225,11.5,14.8,51,0.00,,,0.00,WUHU216TE923,2013-01-21 16:25:00,
2013-01-21 08:30:00,25.9,9.7,30.03,SSE,158,11.0,11.6,50,0.00,,,0.00,WUHU216TE923,2013-01-21 16:30:00,
2013-01-21 08:35:00,26.4,10.2,30.03,SSW,203,10.0,17.4,50,0.00,,,0.00,WUHU216TE923,2013-01-21 16:35:00,
2013-01-21 08:40:00,26.8,10.1,30.03,SSE,158,9.2,17.4,49,0.00,,,0.00,WUHU216TE923,2013-01-21 16:40:00,
2013-01-21 08:45:00,27.3,10.1,30.04,South,180,9.4,19.6,48,0.00,,,0.00,WUHU216TE923,2013-01-21 16:45:00,
2013-01-21 08:50:00,27.7,10.5,30.04,West,270,9.6,19.6,48,0.00,,,0.00,WUHU216TE923,2013-01-21 16:50:00,
2013-01-21 08:55:00,28.2,10.4,30.04,SSW,203,9.4,14.3,47,0.00,,,0.00,WUHU216TE923,2013-01-21 16:55:00,
2013-01-21 09:00:00,28.4,10.6,30.04,South,180,9.2,10.7,47,0.00,,,0.00,WUHU216TE923,2013-01-21 17:00:00,
2013-01-21 09:05:00,28.6,10.3,30.04,SSW,203,8.8,13.8,46,0.00,,,0.00,WUHU216TE923,2013-01-21 17:05:00,
2013-01-21 09:10:00,28.8,10.5,30.04,South,180,9.0,13.8,46,0.00,,,0.00,WUHU216TE923,2013-01-21 17:10:00,
2013-01-21 09:15:00,28.9,10.6,30.04,West,270,8.2,9.8,46,0.00,,,0.00,WUHU216TE923,2013-01-21 17:15:00,
2013-01-21 09:20:00,29.1,10.8,30.04,SW,225,7.7,8.4,46,0.00,,,0.00,WUHU216TE923,2013-01-21 17:20:00,
2013-01-21 09:25:00,29.5,11.1,30.05,SSW,203,7.8,17.0,46,0.00,,,0.00,WUHU216TE923,2013-01-21 17:25:00,
2013-01-21 09:30:00,29.7,11.3,30.05,WSW,248,7.2,17.0,46,0.00,,,0.00,WUHU216TE923,2013-01-21 17:30:00,
2013-01-21 09:35:00,29.1,10.8,30.05,SSE,158,7.8,10.5,46,0.00,,,0.00,WUHU216TE923,2013-01-21 17:35:00,
2013-01-21 09:40:00,29.3,10.9,30.05,SW,225,8.9,14.7,46,0.00,,,0.00,WUHU216TE923,2013-01-21 17:40:00,
2013-01-21 09:45:00,29.7,11.3,30.04,WSW,248,9.6,14.7,46,0.00,,,0.00,WUHU216TE923,2013-01-21 17:45:00,
2013-01-21 09:50:00,29.8,11.4,30.04,SW,225,9.5,9.6,46,0.00,,,0.00,WUHU216TE923,2013-01-21 17:50:00,
2013-01-21 09:55:00,30.6,11.6,30.04,SW,225,9.8,16.3,45,0.00,,,0.00,WUHU216TE923,2013-01-21 17:55:00,
2013-01-21 10:00:00,30.9,11.9,30.04,SW,225,10.4,16.3,45,0.00,,,0.00,WUHU216TE923,2013-01-21 18:00:00,
2013-01-21 10:05:00,31.8,12.7,30.05,West,270,10.6,13.3,45,0.00,,,0.00,WUHU216TE923,2013-01-21 18:05:00,
2013-01-21 10:10:00,32.2,12.6,30.05,SSW,203,10.0,13.3,44,0.00,,,0.00,WUHU216TE923,2013-01-21 18:10:00,
2013-01-21 10:15:00,33.1,13.4,30.05,SSE,158,9.5,16.6,44,0.00,,,0.00,WUHU216TE923,2013-01-21 18:15:00,
2013-01-21 10:20:00,33.6,12.8,30.05,SSW,203,9.1,16.6,42,0.00,,,0.00,WUHU216TE923,2013-01-21 18:20:00,
2013-01-21 10:25:00,34.5,13.6,30.04,SW,225,8.2,14.0,42,0.00,,,0.00,WUHU216TE923,2013-01-21 18:25:00,
2013-01-21 10:30:00,35.2,13.7,30.04,SW,225,7.8,14.0,41,0.00,,,0.00,WUHU216TE923,2013-01-21 18:30:00,
2013-01-21 10:35:00,36.1,13.3,30.04,WSW,248,8.4,11.3,39,0.00,,,0.00,WUHU216TE923,2013-01-21 18:35:00,
2013-01-21 10:40:00,37.0,14.1,30.04,SSW,203,8.5,10.1,39,0.00,,,0.00,WUHU216TE923,2013-01-21 18:40:00,
2013-01-21 10:45:00,38.1,12.6,30.04,South,180,9.6,18.3,35,0.00,,,0.00,WUHU216TE923,2013-01-21 18:45:00,
2013-01-21 10:50:00,38.7,12.5,30.04,SSW,203,9.9,18.3,34,0.00,,,0.00,WUHU216TE923,2013-01-21 18:50:00,
2013-01-21 10:55:00,38.8,12.6,30.04,SSE,158,9.8,10.1,34,0.00,,,0.00,WUHU216TE923,2013-01-21 18:55:00,
2013-01-21 11:00:00,39.4,11.7,30.04,SW,225,9.8,12.1,32,0.00,,,0.00,WUHU216TE923,2013-01-21 19:00:00,
2013-01-21 11:05:00,40.1,11.6,30.04,South,180,9.1,14.2,31,0.00,,,0.00,WUHU216TE923,2013-01-21 19:05:00,
2013-01-21 11:10:00,40.5,12.0,30.04,SSW,203,8.8,14.2,31,0.00,,,0.00,WUHU216TE923,2013-01-21 19:10:00,
2013-01-21 11:15:00,40.8,12.2,30.04,SW,225,8.4,10.9,31,0.00,,,0.00,WUHU216TE923,2013-01-21 19:15:00,
2013-01-21 11:20:00,40.8,12.2,30.04,SSW,203,7.7,9.5,31,0.00,,,0.00,WUHU216TE923,2013-01-21 19:20:00,
2013-01-21 11:25:00,41.0,12.4,30.03,SSE,158,6.5,8.1,31,0.00,,,0.00,WUHU216TE923,2013-01-21 19:25:00,
2013-01-21 11:30:00,41.0,12.4,30.03,SSW,203,5.9,8.1,31,0.00,,,0.00,WUHU216TE923,2013-01-21 19:30:00,
2013-01-21 11:35:00,41.2,12.6,30.03,West,270,5.2,9.1,31,0.00,,,0.00,WUHU216TE923,2013-01-21 19:35:00,
2013-01-21 11:40:00,41.5,12.9,30.03,WSW,248,4.6,9.1,31,0.00,,,0.00,WUHU216TE923,2013-01-21 19:40:00,
2013-01-21 11:45:00,41.9,13.2,30.04,NNE,23,4.4,6.3,31,0.00,,,0.00,WUHU216TE923,2013-01-21 19:45:00,
2013-01-21 11:50:00,41.9,13.2,30.04,West,270,3.8,5.8,31,0.00,,,0.00,WUHU216TE923,2013-01-21 19:50:00,
2013-01-21 11:55:00,41.9,13.2,30.04,South,180,2.3,4.7,31,0.00,,,0.00,WUHU216TE923,2013-01-21 19:55:00,
2013-01-21 12:00:00,42.3,12.8,30.04,West,270,1.9,4.7,30,0.00,,,0.00,WUHU216TE923,2013-01-21 20:00:00,
2013-01-21 12:05:00,43.2,15.1,30.03,WNW,293,2.2,3.2,32,0.00,,,0.00,WUHU216TE923,2013-01-21 20:05:00,
2013-01-21 12:10:00,43.2,15.8,30.03,South,180,2.0,2.2,33,0.00,,,0.00,WUHU216TE923,2013-01-21 20:10:00,
2013-01-21 12:15:00,43.2,15.8,30.03,South,180,2.0,2.0,33,0.00,,,0.00,WUHU216TE923,2013-01-21 20:15:00,
2013-01-21 12:20:00,43.7,15.5,30.03,SW,225,2.9,2.9,32,0.00,,,0.00,WUHU216TE923,2013-01-21 20:20:00,
2013-01-21 12:25:00,43.9,15.7,30.02,West,270,2.1,2.9,32,0.00,,,0.00,WUHU216TE923,2013-01-21 20:25:00,
2013-01-21 12:30:00,44.2,16.0,30.02,East,90,1.4,2.1,32,0.00,,,0.00,WUHU216TE923,2013-01-21 20:30:00,
2013-01-21 12:35:00,44.8,16.5,30.02,NNE,23,1.5,2.8,32,0.00,,,0.00,WUHU216TE923,2013-01-21 20:35:00,
2013-01-21 12:40:00,45.1,16.0,30.02,SSE,158,2.1,2.8,31,0.00,,,0.00,WUHU216TE923,2013-01-21 20:40:00,
2013-01-21 12:45:00,45.5,16.4,30.01,West,270,2.8,6.6,31,0.00,,,0.00,WUHU216TE923,2013-01-21 20:45:00,
2013-01-21 12:50:00,45.7,16.5,30.01,WSW,248,2.9,6.6,31,0.00,,,0.00,WUHU216TE923,2013-01-21 20:50:00,
2013-01-21 12:55:00,46.0,16.8,30.01,SW,225,3.7,3.7,31,0.00,,,0.00,WUHU216TE923,2013-01-21 20:55:00,
2013-01-21 13:00:00,46.2,17.0,30.01,SW,225,3.7,5.3,31,0.00,,,0.00,WUHU216TE923,2013-01-21 21:00:00,
2013-01-21 13:05:00,46.6,17.3,30.01,South,180,3.5,5.3,31,0.00,,,0.00,WUHU216TE923,2013-01-21 21:05:00,
2013-01-21 13:10:00,46.8,17.5,30.01,WSW,248,3.7,5.6,31,0.00,,,0.00,WUHU216TE923,2013-01-21 21:10:00,
2013-01-21 13:15:00,47.7,17.5,30.01,SSW,203,4.5,5.9,30,0.00,,,0.00,WUHU216TE923,2013-01-21 21:15:00,
2013-01-21 13:20:00,47.5,18.1,30.01,South,180,5.0,8.0,31,0.00,,,0.00,WUHU216TE923,2013-01-21 21:20:00,
2013-01-21 13:25:00,47.8,17.6,30.00,South,180,5.4,8.0,30,0.00,,,0.00,WUHU216TE923,2013-01-21 21:25:00,
2013-01-21 13:30:00,47.8,17.6,30.00,WSW,248,5.1,5.4,30,0.00,,,0.00,WUHU216TE923,2013-01-21 21:30:00,
2013-01-21 13:35:00,47.8,17.6,30.00,SE,135,5.0,5.2,30,0.00,,,0.00,WUHU216TE923,2013-01-21 21:35:00,
2013-01-21 13:40:00,47.8,17.6,30.00,NW,315,5.1,5.2,30,0.00,,,0.00,WUHU216TE923,2013-01-21 21:40:00,
2013-01-21 13:45:00,47.7,17.5,29.99,SSW,203,4.2,8.9,30,0.00,,,0.00,WUHU216TE923,2013-01-21 21:45:00,
2013-01-21 13:50:00,47.5,17.4,29.99,West,270,3.2,8.9,30,0.00,,,0.00,WUHU216TE923,2013-01-21 21:50:00,
2013-01-21 13:55:00,47.8,17.6,29.99,SW,225,3.5,8.9,30,0.00,,,0.00,WUHU216TE923,2013-01-21 21:55:00,
2013-01-21 14:00:00,48.4,17.4,29.99,SSW,203,3.7,4.0,29,0.00,,,0.00,WUHU216TE923,2013-01-21 22:00:00,
2013-01-21 14:05:00,48.2,18.0,29.99,SSE,158,3.0,4.0,30,0.00,,,0.00,WUHU216TE923,2013-01-21 22:05:00,
2013-01-21 14:10:00,48.0,17.8,29.99,ENE,68,2.1,3.0,30,0.00,,,0.00,WUHU216TE923,2013-01-21 22:10:00,
2013-01-21 14:15:00,47.1,17.8,29.99,NNE,23,1.2,2.7,31,0.00,,,0.00,WUHU216TE923,2013-01-21 22:15:00,
2013-01-21 14:20:00,46.8,17.5,29.99,NNW,338,1.6,3.0,31,0.00,,,0.00,WUHU216TE923,2013-01-21 22:20:00,
2013-01-21 14:25:00,46.4,17.2,30.00,NNE,23,1.8,3.0,31,0.00,,,0.00,WUHU216TE923,2013-01-21 22:25:00,
2013-01-21 14:30:00,46.0,17.5,30.00,NNW,338,1.6,2.4,32,0.00,,,0.00,WUHU216TE923,2013-01-21 22:30:00,
2013-01-21 14:35:00,45.7,17.3,30.00,NW,315,1.6,3.0,32,0.00,,,0.00,WUHU216TE923,2013-01-21 22:35:00,
2013-01-21 14:40:00,45.7,17.3,30.00,NW,315,1.6,3.0,32,0.00,,,0.00,WUHU216TE923,2013-01-21 22:40:00,
2013-01-21 14:45:00,45.3,16.9,30.00,NNW,338,2.0,3.1,32,0.00,,,0.00,WUHU216TE923,2013-01-21 22:45:00,
2013-01-21 14:50:00,45.3,16.9,30.00,NW,315,2.0,3.2,32,0.00,,,0.00,WUHU216TE923,2013-01-21 22:50:00,
2013-01-21 14:55:00,45.1,16.7,30.00,NW,315,2.0,3.2,32,0.00,,,0.00,WUHU216TE923,2013-01-21 22:55:00,
2013-01-21 15:00:00,45.1,17.5,30.00,NNW,338,1.8,2.8,33,0.00,,,0.00,WUHU216TE923,2013-01-21 23:00:00,
2013-01-21 15:05:00,44.8,17.2,30.00,NW,315,1.7,2.1,33,0.00,,,0.00,WUHU216TE923,2013-01-21 23:05:00,
2013-01-21 15:10:00,44.8,17.2,30.00,NNW,338,1.9,2.4,33,0.00,,,0.00,WUHU216TE923,2013-01-21 23:10:00,
2013-01-21 15:15:00,44.4,17.5,30.00,NNW,338,2.1,2.4,34,0.00,,,0.00,WUHU216TE923,2013-01-21 23:15:00,
2013-01-21 15:20:00,43.9,17.1,30.00,North,0,1.8,2.4,34,0.00,,,0.00,WUHU216TE923,2013-01-21 23:20:00,
2013-01-21 15:26:00,43.2,16.5,30.01,NNW,338,0.8,1.8,34,0.00,,,0.00,WUHU216TE923,2013-01-21 23:26:00,
2013-01-21 15:31:00,43.0,17.0,30.01,West,270,0.4,1.5,35,0.00,,,0.00,WUHU216TE923,2013-01-21 23:31:00,
2013-01-21 15:36:00,41.9,16.0,30.01,SW,225,0.3,0.4,35,0.00,,,0.00,WUHU216TE923,2013-01-21 23:36:00,
2013-01-21 15:41:00,41.2,16.0,30.01,WNW,293,0.1,1.1,36,0.00,,,0.00,WUHU216TE923,2013-01-21 23:41:00,
2013-01-21 15:46:00,40.6,17.4,30.00,SSE,158,0.2,1.1,39,0.00,,,0.00,WUHU216TE923,2013-01-21 23:46:00,
2013-01-21 15:51:00,40.1,18.1,30.00,SW,225,0.2,0.2,41,0.00,,,0.00,WUHU216TE923,2013-01-21 23:51:00,
2013-01-21 15:56:00,40.1,18.7,30.00,ESE,113,0.0,0.2,42,0.00,,,0.00,WUHU216TE923,2013-01-21 23:56:00,
2013-01-21 16:01:00,39.9,18.5,30.00,SSE,158,0.0,0.0,42,0.00,,,0.00,WUHU216TE923,2013-01-22 00:01:00,
2013-01-21 16:06:00,39.7,18.3,30.01,NNW,338,0.0,0.0,42,0.00,,,0.00,WUHU216TE923,2013-01-22 00:06:00,
2013-01-21 16:11:00,39.9,18.5,30.01,SE,135,0.1,1.2,42,0.00,,,0.00,WUHU216TE923,2013-01-22 00:11:00,
2013-01-21 16:16:00,39.6,18.8,30.01,WSW,248,0.1,1.2,43,0.00,,,0.00,WUHU216TE923,2013-01-22 00:16:00,
2013-01-21 16:21:00,39.0,18.2,30.01,SSE,158,0.0,0.1,43,0.00,,,0.00,WUHU216TE923,2013-01-22 00:21:00,
2013-01-21 16:26:00,38.5,18.3,30.02,SW,225,0.0,0.0,44,0.00,,,0.00,WUHU216TE923,2013-01-22 00:26:00,
2013-01-21 16:31:00,38.3,18.1,30.02,WSW,248,0.0,0.0,44,0.00,,,0.00,WUHU216TE923,2013-01-22 00:31:00,
2013-01-21 16:36:00,37.8,18.2,30.02,SW,225,0.0,0.0,45,0.00,,,0.00,WUHU216TE923,2013-01-22 00:36:00,
2013-01-21 16:41:00,37.6,18.0,30.02,SSW,203,0.1,0.1,45,0.00,,,0.00,WUHU216TE923,2013-01-22 00:41:00,
2013-01-21 16:46:00,37.4,17.9,30.02,SW,225,0.5,1.4,45,0.00,,,0.00,WUHU216TE923,2013-01-22 00:46:00,
2013-01-21 16:51:00,37.2,18.2,30.02,SW,225,0.6,1.4,46,0.00,,,0.00,WUHU216TE923,2013-01-22 00:51:00,
2013-01-21 16:56:00,37.0,18.0,30.02,WSW,248,0.6,1.3,46,0.00,,,0.00,WUHU216TE923,2013-01-22 00:56:00,
2013-01-21 17:01:00,36.9,17.9,30.02,SW,225,0.5,1.3,46,0.00,,,0.00,WUHU216TE923,2013-01-22 01:01:00,
2013-01-21 17:06:00,36.9,17.9,30.03,WSW,248,0.9,1.3,46,0.00,,,0.00,WUHU216TE923,2013-01-22 01:06:00,
2013-01-21 17:11:00,36.7,18.3,30.03,SW,225,1.1,2.2,47,0.00,,,0.00,WUHU216TE923,2013-01-22 01:11:00,
2013-01-21 17:16:00,36.3,17.9,30.03,SW,225,1.6,2.4,47,0.00,,,0.00,WUHU216TE923,2013-01-22 01:16:00,
2013-01-21 17:21:00,36.1,17.7,30.03,SW,225,1.7,2.4,47,0.00,,,0.00,WUHU216TE923,2013-01-22 01:21:00,
2013-01-21 17:26:00,36.3,17.9,30.02,SSW,203,1.6,2.1,47,0.00,,,0.00,WUHU216TE923,2013-01-22 01:26:00,
2013-01-21 17:31:00,36.0,17.6,30.02,WSW,248,1.5,2.3,47,0.00,,,0.00,WUHU216TE923,2013-01-22 01:31:00,
2013-01-21 17:36:00,35.8,17.9,30.02,SW,225,1.3,2.3,48,0.00,,,0.00,WUHU216TE923,2013-01-22 01:36:00,
2013-01-21 17:41:00,35.8,17.9,30.02,SSW,203,0.9,1.3,48,0.00,,,0.00,WUHU216TE923,2013-01-22 01:41:00,
2013-01-21 17:46:00,36.1,17.7,30.02,SW,225,1.1,2.2,47,0.00,,,0.00,WUHU216TE923,2013-01-22 01:46:00,
2013-01-21 17:51:00,36.3,17.9,30.02,South,180,1.7,2.2,47,0.00,,,0.00,WUHU216TE923,2013-01-22 01:51:00,
2013-01-21 17:56:00,36.3,17.9,30.02,SW,225,1.5,1.7,47,0.00,,,0.00,WUHU216TE923,2013-01-22 01:56:00,
2013-01-21 18:01:00,36.1,17.7,30.02,SW,225,1.7,5.5,47,0.00,,,0.00,WUHU216TE923,2013-01-22 02:01:00,
2013-01-21 18:06:00,36.7,18.3,30.02,SW,225,2.9,5.6,47,0.00,,,0.00,WUHU216TE923,2013-01-22 02:06:00,
2013-01-21 18:11:00,37.0,18.5,30.02,SW,225,3.4,5.6,47,0.00,,,0.00,WUHU216TE923,2013-01-22 02:11:00,
2013-01-21 18:16:00,37.2,18.7,30.02,South,180,3.4,5.3,47,0.00,,,0.00,WUHU216TE923,2013-01-22 02:16:00,
2013-01-21 18:21:00,37.6,18.6,30.02,South,180,2.9,5.3,46,0.00,,,0.00,WUHU216TE923,2013-01-22 02:21:00,
2013-01-21 18:26:00,37.9,18.3,30.03,SSW,203,2.3,3.4,45,0.00,,,0.00,WUHU216TE923,2013-01-22 02:26:00,
2013-01-21 18:31:00,37.9,18.3,30.03,South,180,2.6,3.8,45,0.00,,,0.00,WUHU216TE923,2013-01-22 02:31:00,
2013-01-21 18:36:00,37.9,18.3,30.03,SW,225,2.4,3.8,45,0.00,,,0.00,WUHU216TE923,2013-01-22 02:36:00,
2013-01-21 18:41:00,37.8,18.2,30.03,SW,225,2.0,3.0,45,0.00,,,0.00,WUHU216TE923,2013-01-22 02:41:00,
2013-01-21 18:46:00,37.6,18.0,30.02,WSW,248,2.2,4.3,45,0.00,,,0.00,WUHU216TE923,2013-01-22 02:46:00,
2013-01-21 18:51:00,37.8,18.2,30.02,WSW,248,2.5,4.3,45,0.00,,,0.00,WUHU216TE923,2013-01-22 02:51:00,
2013-01-21 18:56:00,38.1,18.5,30.02,SSW,203,2.5,3.6,45,0.00,,,0.00,WUHU216TE923,2013-01-22 02:56:00,
2013-01-21 19:01:00,38.1,18.5,30.02,WSW,248,2.6,4.3,45,0.00,,,0.00,WUHU216TE923,2013-01-22 03:01:00,
2013-01-21 19:06:00,38.5,18.9,30.02,SW,225,3.0,4.3,45,0.00,,,0.00,WUHU216TE923,2013-01-22 03:06:00,
2013-01-21 19:11:00,38.7,19.0,30.02,South,180,3.2,4.3,45,0.00,,,0.00,WUHU216TE923,2013-01-22 03:11:00,
2013-01-21 19:16:00,38.8,18.6,30.02,South,180,3.3,5.3,44,0.00,,,0.00,WUHU216TE923,2013-01-22 03:16:00,
2013-01-21 19:21:00,38.8,18.6,30.02,SW,225,3.1,5.3,44,0.00,,,0.00,WUHU216TE923,2013-01-22 03:21:00,
2013-01-21 19:26:00,38.5,18.3,30.02,SW,225,2.7,3.5,44,0.00,,,0.00,WUHU216TE923,2013-01-22 03:26:00,
2013-01-21 19:31:00,37.9,17.8,30.02,WSW,248,2.0,3.5,44,0.00,,,0.00,WUHU216TE923,2013-01-22 03:31:00,
2013-01-21 19:36:00,37.2,17.7,30.02,SW,225,1.2,2.0,45,0.00,,,0.00,WUHU216TE923,2013-01-22 03:36:00,
2013-01-21 19:41:00,36.9,17.9,30.02,NW,315,0.9,2.0,46,0.00,,,0.00,WUHU216TE923,2013-01-22 03:41:00,
2013-01-21 19:46:00,36.5,17.6,30.02,West,270,0.5,0.9,46,0.00,,,0.00,WUHU216TE923,2013-01-22 03:46:00,
2013-01-21 19:51:00,36.0,17.1,30.02,East,90,0.1,0.5,46,0.00,,,0.00,WUHU216TE923,2013-01-22 03:51:00,
2013-01-21 19:56:00,35.2,16.4,30.02,SE,135,0.0,0.1,46,0.00,,,0.00,WUHU216TE923,2013-01-22 03:56:00,
2013-01-21 20:01:00,35.2,16.4,30.02,NNE,23,0.1,1.2,46,0.00,,,0.00,WUHU216TE923,2013-01-22 04:01:00,
2013-01-21 20:06:00,34.5,16.2,30.02,SW,225,0.1,1.2,47,0.00,,,0.00,WUHU216TE923,2013-01-22 04:06:00,
2013-01-21 20:11:00,33.8,15.6,30.02,WSW,248,0.2,1.0,47,0.00,,,0.00,WUHU216TE923,2013-01-22 04:11:00,
2013-01-21 20:16:00,32.7,15.1,30.02,West,270,0.3,1.0,48,0.00,,,0.00,WUHU216TE923,2013-01-22 04:16:00,
2013-01-21 20:21:00,32.7,15.6,30.02,East,90,0.2,0.3,49,0.00,,,0.00,WUHU216TE923,2013-01-22 04:21:00,
2013-01-21 20:26:00,32.5,15.4,30.02,NW,315,0.1,0.2,49,0.00,,,0.00,WUHU216TE923,2013-01-22 04:26:00,
2013-01-21 20:31:00,32.4,15.3,30.02,NNW,338,0.1,0.1,49,0.00,,,0.00,WUHU216TE923,2013-01-22 04:31:00,
2013-01-21 20:36:00,32.2,15.6,30.02,WSW,248,0.2,0.2,50,0.00,,,0.00,WUHU216TE923,2013-01-22 04:36:00,
2013-01-21 20:41:00,31.8,15.7,30.02,SW,225,0.4,1.8,51,0.00,,,0.00,WUHU216TE923,2013-01-22 04:41:00,
2013-01-21 20:46:00,31.6,15.5,30.02,SW,225,0.3,1.8,51,0.00,,,0.00,WUHU216TE923,2013-01-22 04:46:00,
2013-01-21 20:51:00,31.3,15.7,30.02,South,180,0.2,0.3,52,0.00,,,0.00,WUHU216TE923,2013-01-22 04:51:00,
2013-01-21 20:56:00,30.9,15.3,30.02,WSW,248,0.0,0.2,52,0.00,,,0.00,WUHU216TE923,2013-01-22 04:56:00,
2013-01-21 21:01:00,30.7,15.1,30.02,WSW,248,0.0,0.0,52,0.00,,,0.00,WUHU216TE923,2013-01-22 05:01:00,
2013-01-21 21:06:00,30.6,15.5,30.02,WSW,248,0.0,0.0,53,0.00,,,0.00,WUHU216TE923,2013-01-22 05:06:00,
2013-01-21 21:11:00,30.4,15.3,30.02,SW,225,0.0,0.0,53,0.00,,,0.00,WUHU216TE923,2013-01-22 05:11:00,
2013-01-21 21:16:00,30.6,15.5,30.02,SE,135,0.0,0.0,53,0.00,,,0.00,WUHU216TE923,2013-01-22 05:16:00,
2013-01-21 21:21:00,30.9,15.7,30.02,ESE,113,0.1,0.1,53,0.00,,,0.00,WUHU216TE923,2013-01-22 05:21:00,
2013-01-21 21:26:00,31.6,15.9,30.01,WSW,248,1.0,1.6,52,0.00,,,0.00,WUHU216TE923,2013-01-22 05:26:00,
2013-01-21 21:31:00,32.2,16.5,30.01,SW,225,1.7,5.0,52,0.00,,,0.00,WUHU216TE923,2013-01-22 05:31:00,
2013-01-21 21:36:00,33.3,16.6,30.01,SSE,158,2.3,5.0,50,0.00,,,0.00,WUHU216TE923,2013-01-22 05:36:00,
2013-01-21 21:41:00,34.0,16.8,30.01,SW,225,2.8,7.1,49,0.00,,,0.00,WUHU216TE923,2013-01-22 05:41:00,
2013-01-21 21:46:00,34.5,16.7,29.99,SW,225,3.9,7.7,48,0.00,,,0.00,WUHU216TE923,2013-01-22 05:46:00,
2013-01-21 21:51:00,35.2,17.4,29.99,SE,135,4.9,7.9,48,0.00,,,0.00,WUHU216TE923,2013-01-22 05:51:00,
2013-01-21 21:56:00,35.6,17.2,29.99,WSW,248,6.7,8.1,47,0.00,,,0.00,WUHU216TE923,2013-01-22 05:56:00,
2013-01-21 22:01:00,35.8,16.9,29.99,South,180,7.2,9.1,46,0.00,,,0.00,WUHU216TE923,2013-01-22 06:01:00,
2013-01-21 22:06:00,35.8,16.4,29.99,SW,225,7.6,13.8,45,0.00,,,0.00,WUHU216TE923,2013-01-22 06:06:00,
2013-01-21 22:11:00,36.0,16.6,29.99,SW,225,7.8,13.8,45,0.00,,,0.00,WUHU216TE923,2013-01-22 06:11:00,
2013-01-21 22:16:00,35.6,15.7,29.99,SW,225,8.3,14.0,44,0.00,,,0.00,WUHU216TE923,2013-01-22 06:16:00,
2013-01-21 22:21:00,35.4,16.0,29.99,North,0,8.1,14.0,45,0.00,,,0.00,WUHU216TE923,2013-01-22 06:21:00,
2013-01-21 22:26:00,35.1,15.2,29.97,South,180,8.5,11.3,44,0.00,,,0.00,WUHU216TE923,2013-01-22 06:26:00,
2013-01-21 22:31:00,34.7,14.9,29.97,WSW,248,8.5,14.0,44,0.00,,,0.00,WUHU216TE923,2013-01-22 06:31:00,
2013-01-21 22:36:00,34.7,14.9,29.97,SW,225,6.7,14.0,44,0.00,,,0.00,WUHU216TE923,2013-01-22 06:36:00,
2013-01-21 22:41:00,34.7,14.9,29.97,SW,225,5.1,6.7,44,0.00,,,0.00,WUHU216TE923,2013-01-22 06:41:00,
2013-01-21 22:46:00,34.7,14.9,29.97,South,180,2.8,5.1,44,0.00,,,0.00,WUHU216TE923,2013-01-22 06:46:00,
2013-01-21 22:51:00,34.5,14.7,29.97,ENE,68,2.2,2.8,44,0.00,,,0.00,WUHU216TE923,2013-01-22 06:51:00,
2013-01-21 22:56:00,34.2,14.4,29.97,SW,225,2.1,5.1,44,0.00,,,0.00,WUHU216TE923,2013-01-22 06:56:00,
2013-01-21 23:01:00,34.0,14.2,29.97,SW,225,2.6,5.1,44,0.00,,,0.00,WUHU216TE923,2013-01-22 07:01:00,
2013-01-21 23:06:00,33.8,14.0,29.97,SSE,158,2.6,3.2,44,0.00,,,0.00,WUHU216TE923,2013-01-22 07:06:00,
2013-01-21 23:11:00,33.6,13.8,29.97,NNE,23,1.4,2.6,44,0.00,,,0.00,WUHU216TE923,2013-01-22 07:11:00,
2013-01-21 23:16:00,33.3,13.6,29.97,SW,225,0.6,2.8,44,0.00,,,0.00,WUHU216TE923,2013-01-22 07:16:00,
2013-01-21 23:21:00,33.3,13.6,29.97,WSW,248,1.4,3.2,44,0.00,,,0.00,WUHU216TE923,2013-01-22 07:21:00,
2013-01-21 23:26:00,33.4,13.7,29.97,East,90,2.8,3.2,44,0.00,,,0.00,WUHU216TE923,2013-01-22 07:26:00,
2013-01-21 23:31:00,33.3,13.6,29.97,ESE,113,2.1,2.8,44,0.00,,,0.00,WUHU216TE923,2013-01-22 07:31:00,
2013-01-21 23:36:00,32.9,13.2,29.97,NNE,23,0.9,2.7,44,0.00,,,0.00,WUHU216TE923,2013-01-22 07:36:00,
2013-01-21 23:41:00,32.7,13.0,29.97,West,270,1.0,2.7,44,0.00,,,0.00,WUHU216TE923,2013-01-22 07:41:00,
2013-01-21 23:46:00,32.5,12.8,29.97,South,180,2.9,8.6,44,0.00,,,0.00,WUHU216TE923,2013-01-22 07:46:00,
2013-01-21 23:51:00,32.5,13.4,29.97,SSW,203,4.1,8.6,45,0.00,,,0.00,WUHU216TE923,2013-01-22 07:51:00,
2013-01-21 23:56:00,32.4,13.3,29.97,SE,135,3.6,5.8,45,0.00,,,0.00,WUHU216TE923,2013-01-22 07:56:00,